Time;durP1;ratioP1;P1;durP2;ratioP2;P2;SDS_P1;SDS_P2;PMS_P1;PMS_P2;Temp;Humidity;BMP_temperature;BMP_pressure;BME280_temperature;BME280_humidity;BME280_pressure;Samples;Min_cycle;Max_cycle;Signal;HPM_P1;HPM_P2
2023/02/19 00:01:39;;;;;;;46.83;14.90;;;7.90;99.90;;;;;;5017756;28;20095;-66
2023/02/19 00:04:16;;;;;;;64.60;18.60;;;7.90;99.90;;;;;;5012422;28;20085;-65
2023/02/19 00:06:44;;;;;;;63.45;18.25;;;8.00;99.90;;;;;;5016684;28;20065;-65
2023/02/19 00:09:11;;;;;;;57.45;17.20;;;8.00;99.90;;;;;;5019142;28;20088;-65
2023/02/19 00:11:37;;;;;;;71.82;14.30;;;8.10;99.90;;;;;;5011965;28;20049;-65
2023/02/19 00:14:04;;;;;;;73.13;12.93;;;8.00;99.90;;;;;;5020384;28;20099;-66
2023/02/19 00:16:36;;;;;;;47.08;11.55;;;7.60;99.90;;;;;;5018968;28;20044;-65
2023/02/19 00:19:06;;;;;;;27.15;9.52;;;7.40;99.90;;;;;;5018660;28;20140;-69
2023/02/19 00:21:31;;;;;;;29.30;10.03;;;7.20;99.90;;;;;;5008922;28;20080;-65
2023/02/19 00:24:01;;;;;;;20.98;7.82;;;7.00;99.90;;;;;;5016025;28;20077;-65
2023/02/19 00:26:27;;;;;;;26.67;8.43;;;6.90;99.90;;;;;;5012264;28;20112;-65
2023/02/19 00:28:54;;;;;;;21.65;8.07;;;6.80;99.90;;;;;;5008525;28;20436;-65
2023/02/19 00:31:22;;;;;;;12.25;6.47;;;6.70;99.90;;;;;;5020511;28;20043;-72
2023/02/19 00:33:49;;;;;;;20.65;7.00;;;6.60;99.90;;;;;;5017351;28;20370;-65
2023/02/19 00:36:15;;;;;;;9.68;6.40;;;6.60;99.90;;;;;;5020612;28;20128;-72
2023/02/19 00:38:42;;;;;;;10.45;5.85;;;6.60;99.90;;;;;;5010173;28;20046;-68
2023/02/19 00:41:18;;;;;;;9.55;5.90;;;6.60;99.90;;;;;;5005888;28;20396;-66
2023/02/19 00:43:45;;;;;;;9.30;6.13;;;6.50;99.90;;;;;;5008875;28;20045;-65
2023/02/19 00:46:10;;;;;;;13.25;5.50;;;6.50;99.90;;;;;;5007876;28;20057;-66
2023/02/19 00:48:36;;;;;;;9.35;5.28;;;6.50;99.90;;;;;;5008322;28;20042;-65
2023/02/19 00:51:02;;;;;;;7.13;5.05;;;6.50;99.90;;;;;;5007702;28;20077;-69
2023/02/19 00:53:28;;;;;;;7.47;4.80;;;6.50;99.90;;;;;;5005396;28;20045;-66
2023/02/19 00:55:53;;;;;;;4.22;3.30;;;6.50;99.90;;;;;;4996091;28;20057;-66
2023/02/19 00:58:19;;;;;;;6.25;3.15;;;6.50;99.90;;;;;;5007318;28;20376;-74
2023/02/19 01:00:45;;;;;;;4.28;2.60;;;6.40;99.90;;;;;;5011458;28;20049;-65
2023/02/19 01:03:11;;;;;;;2.90;2.00;;;6.40;99.90;;;;;;5005705;28;20048;-67
2023/02/19 01:05:36;;;;;;;7.05;1.90;;;6.40;99.90;;;;;;5016836;28;20056;-76
2023/02/19 01:08:02;;;;;;;8.13;1.83;;;6.40;99.90;;;;;;5010731;28;20504;-86
2023/02/19 01:10:28;;;;;;;6.30;0.80;;;6.30;99.90;;;;;;5024692;28;20672;-67
2023/02/19 01:12:53;;;;;;;3.00;1.20;;;6.30;99.90;;;;;;5010785;28;20042;-65
2023/02/19 01:15:19;;;;;;;1.90;1.08;;;6.30;99.90;;;;;;5005114;28;20054;-72
2023/02/19 01:17:45;;;;;;;2.67;1.15;;;6.30;99.90;;;;;;5008334;28;20530;-72
2023/02/19 01:20:10;;;;;;;4.72;0.90;;;6.30;99.90;;;;;;5015410;28;20038;-65
2023/02/19 01:22:36;;;;;;;4.68;1.30;;;6.20;99.90;;;;;;5008096;28;20053;-82
2023/02/19 01:25:02;;;;;;;10.00;1.60;;;6.20;99.90;;;;;;5005871;28;20052;-75
2023/02/19 01:27:28;;;;;;;2.22;1.10;;;6.20;99.90;;;;;;5005829;28;20566;-69
2023/02/19 01:29:53;;;;;;;2.35;1.20;;;6.20;99.90;;;;;;5008020;28;20049;-65
2023/02/19 01:32:19;;;;;;;1.55;1.45;;;6.20;99.90;;;;;;5009827;28;20495;-66
2023/02/19 01:34:44;;;;;;;4.00;1.67;;;6.10;99.90;;;;;;5023205;28;20330;-64
2023/02/19 01:37:11;;;;;;;2.15;1.25;;;6.10;99.90;;;;;;4995985;28;20490;-65
2023/02/19 01:39:38;;;;;;;3.63;1.00;;;6.10;99.90;;;;;;5008543;28;20042;-65
2023/02/19 01:42:10;;;;;;;2.38;1.00;;;6.00;99.90;;;;;;5025543;28;20068;-91
2023/02/19 01:44:36;;;;;;;2.45;0.90;;;6.00;99.90;;;;;;5007732;28;20496;-85
2023/02/19 01:47:02;;;;;;;2.95;1.35;;;5.90;99.90;;;;;;5007946;28;20095;-91
2023/02/19 01:49:37;;;;;;;5.72;1.20;;;5.90;99.90;;;;;;5008078;28;20066;-77
2023/02/19 01:52:03;;;;;;;3.97;1.70;;;5.90;99.90;;;;;;5008117;28;20129;-79
2023/02/19 01:54:33;;;;;;;2.78;1.20;;;5.90;99.90;;;;;;5006037;28;20122;-81
2023/02/19 01:57:00;;;;;;;5.70;1.52;;;5.90;99.90;;;;;;5023484;28;20050;-75
2023/02/19 01:59:26;;;;;;;5.60;1.42;;;5.90;99.90;;;;;;5006057;28;20121;-84
2023/02/19 02:01:52;;;;;;;7.57;1.60;;;5.80;99.90;;;;;;5022914;28;20118;-68
2023/02/19 02:04:18;;;;;;;10.02;1.60;;;5.80;99.90;;;;;;5009637;28;20503;-85
2023/02/19 02:06:55;;;;;;;2.67;1.45;;;5.90;99.90;;;;;;5025449;28;20420;-87
2023/02/19 02:12:12;;;;;;;3.50;1.80;;;5.80;99.90;;;;;;5009357;28;20049;-85
2023/02/19 02:14:42;;;;;;;1.67;1.58;;;5.80;99.90;;;;;;5009800;28;20057;-78
2023/02/19 02:17:24;;;;;;;3.08;2.00;;;5.80;99.90;;;;;;5011556;28;20060;-81
2023/02/19 02:20:21;;;;;;;5.30;1.90;;;5.70;99.90;;;;;;5012755;28;20484;-77
2023/02/19 02:23:14;;;;;;;1.48;1.45;;;5.70;99.90;;;;;;5024177;28;20042;-65
2023/02/19 02:26:00;;;;;;;3.00;1.63;;;5.70;99.90;;;;;;5011040;28;20454;-74
2023/02/19 02:28:51;;;;;;;3.78;2.10;;;5.70;99.90;;;;;;5009924;28;20050;-75
2023/02/19 02:31:26;;;;;;;2.15;1.95;;;5.70;99.90;;;;;;5011773;28;20077;-87
2023/02/19 02:34:00;;;;;;;2.20;2.00;;;5.70;99.90;;;;;;5012124;28;20637;-66
2023/02/19 02:36:39;;;;;;;2.05;1.90;;;5.70;99.90;;;;;;5009890;28;20522;-65
2023/02/19 02:39:11;;;;;;;2.10;1.90;;;5.60;99.90;;;;;;5011395;28;20057;-66
2023/02/19 02:41:43;;;;;;;2.00;1.90;;;5.60;99.90;;;;;;5008073;28;20049;-65
2023/02/19 02:44:09;;;;;;;3.72;1.73;;;5.60;99.90;;;;;;5019251;28;20042;-87
2023/02/19 02:46:39;;;;;;;1.42;1.38;;;5.50;99.90;;;;;;5008205;28;20121;-75
2023/02/19 02:49:11;;;;;;;1.20;1.20;;;5.50;99.90;;;;;;5009716;28;20061;-66
2023/02/19 02:51:48;;;;;;;1.20;1.20;;;5.50;99.90;;;;;;5008747;28;20061;-73
2023/02/19 02:57:05;;;;;;;;;;;5.50;99.90;;;;;;5011698;28;20046;-65
2023/02/19 02:59:33;;;;;;;1.30;1.30;;;5.40;99.90;;;;;;5009110;28;19926;-67
2023/02/19 03:02:17;;;;;;;1.08;1.08;;;5.50;99.90;;;;;;5015026;28;20100;-65
2023/02/19 03:05:50;;;;;;;1.17;1.17;;;5.50;99.90;;;;;;5015140;28;20435;-65
2023/02/19 03:07:35;;;;;;;1.05;1.05;;;5.40;99.90;;;;;;5020973;28;20052;-74
2023/02/19 03:10:04;;;;;;;1.60;1.50;;;5.40;99.90;;;;;;5010465;28;20046;-69
2023/02/19 03:20:54;;;;;;;1.50;1.50;;;5.40;99.90;;;;;;5008131;28;20411;-70
2023/02/19 03:26:02;;;;;;;;;;;5.40;99.90;;;;;;5010950;28;20050;-72
2023/02/19 03:26:09;;;;;;;2.58;1.80;;;5.40;99.90;;;;;;5010964;28;19921;-72
2023/02/19 03:31:25;;;;;;;2.20;2.00;;;5.40;99.90;;;;;;5009026;28;20488;-66
2023/02/19 03:33:56;;;;;;;1.95;1.70;;;5.40;99.90;;;;;;5008042;28;20455;-72
2023/02/19 03:36:26;;;;;;;1.60;1.50;;;5.30;99.90;;;;;;5012000;28;20053;-77
2023/02/19 03:39:04;;;;;;;1.95;1.50;;;5.30;99.90;;;;;;5008025;28;20129;-72
2023/02/19 03:41:39;;;;;;;1.40;1.30;;;5.20;99.90;;;;;;5008617;28;20500;-75
2023/02/19 03:44:09;;;;;;;1.70;1.60;;;5.20;99.90;;;;;;5009779;28;20573;-68
2023/02/19 03:46:37;;;;;;;1.83;1.73;;;5.10;99.90;;;;;;5008661;28;20061;-74
2023/02/19 03:49:22;;;;;;;1.75;1.65;;;5.10;99.90;;;;;;5009514;28;20053;-69
2023/02/19 03:52:00;;;;;;;1.98;1.80;;;5.10;99.90;;;;;;5008665;28;20058;-66
2023/02/19 03:54:41;;;;;;;2.13;1.77;;;5.10;99.90;;;;;;5007064;28;20060;-66
2023/02/19 03:57:17;;;;;;;1.83;1.73;;;5.10;99.90;;;;;;5009677;28;20096;-72
2023/02/19 04:00:16;;;;;;;1.80;1.70;;;5.10;99.90;;;;;;5007672;28;20511;-65
2023/02/19 04:02:56;;;;;;;1.80;1.70;;;5.10;99.90;;;;;;5015081;28;20054;-65
2023/02/19 04:05:32;;;;;;;3.40;1.13;;;5.10;99.90;;;;;;5009720;28;20046;-65
2023/02/19 04:08:02;;;;;;;2.50;1.63;;;5.10;99.90;;;;;;5017931;28;20045;-72
2023/02/19 04:10:29;;;;;;;2.60;1.27;;;5.10;99.90;;;;;;5014504;28;20113;-75
2023/02/19 04:13:10;;;;;;;5.32;1.45;;;5.10;99.90;;;;;;5007769;28;20041;-71
2023/02/19 04:15:37;;;;;;;;;;;5.10;99.90;;;;;;5008934;28;20092;-65
2023/02/19 04:18:13;;;;;;;4.05;1.70;;;5.10;99.90;;;;;;5010558;28;19976;-68
2023/02/19 04:20:42;;;;;;;1.92;1.83;;;5.10;99.90;;;;;;5007023;28;20054;-73
2023/02/19 04:23:09;;;;;;;2.53;1.60;;;5.10;99.90;;;;;;5009339;28;20046;-65
2023/02/19 04:25:37;;;;;;;2.00;1.63;;;5.10;99.90;;;;;;5006454;28;20045;-66
2023/02/19 04:28:03;;;;;;;1.63;1.30;;;5.10;99.90;;;;;;5010262;28;20092;-65
2023/02/19 04:30:29;;;;;;;3.83;1.10;;;5.10;99.90;;;;;;5006407;28;20483;-66
2023/02/19 04:32:54;;;;;;;3.25;1.30;;;5.00;99.90;;;;;;5013944;28;20073;-65
2023/02/19 04:35:20;;;;;;;5.22;1.55;;;5.00;99.90;;;;;;5014686;28;20048;-65
2023/02/19 04:37:45;;;;;;;7.32;1.50;;;5.00;99.90;;;;;;5019378;28;20038;-65
2023/02/19 04:40:11;;;;;;;1.73;1.15;;;5.00;99.90;;;;;;5015363;28;20081;-65
2023/02/19 04:42:37;;;;;;;2.58;1.05;;;5.00;99.90;;;;;;5017650;28;20103;-67
2023/02/19 04:45:03;;;;;;;2.88;0.90;;;5.00;99.90;;;;;;5022671;28;20041;-72
2023/02/19 04:47:31;;;;;;;0.70;0.70;;;5.00;99.90;;;;;;5020101;28;20100;-65
2023/02/19 04:49:57;;;;;;;5.32;0.80;;;5.00;99.90;;;;;;5020464;28;20061;-68
2023/02/19 04:52:23;;;;;;;2.97;0.60;;;5.00;99.90;;;;;;5021658;28;20431;-65
2023/02/19 04:54:49;;;;;;;2.25;1.00;;;4.90;99.90;;;;;;5015970;28;20050;-65
2023/02/19 04:57:15;;;;;;;4.00;1.10;;;5.00;99.90;;;;;;5020055;28;20046;-78
2023/02/19 04:59:41;;;;;;;10.75;1.20;;;5.00;99.90;;;;;;5015627;28;20455;-65
2023/02/19 05:02:06;;;;;;;4.82;0.60;;;5.00;99.90;;;;;;5021703;28;20095;-65
2023/02/19 05:04:32;;;;;;;3.25;0.80;;;4.90;99.90;;;;;;5015445;28;20104;-68
2023/02/19 05:06:58;;;;;;;6.50;1.00;;;4.90;99.90;;;;;;5023132;28;20397;-65
2023/02/19 05:09:23;;;;;;;4.00;0.80;;;4.90;99.90;;;;;;5016577;28;20061;-65
2023/02/19 05:11:49;;;;;;;2.90;0.68;;;4.90;99.90;;;;;;5007480;28;20038;-65
2023/02/19 05:14:16;;;;;;;3.20;0.60;;;4.80;99.90;;;;;;5008304;28;20038;-65
2023/02/19 05:16:41;;;;;;;3.03;0.77;;;4.80;99.90;;;;;;5029375;28;20064;-65
2023/02/19 05:19:10;;;;;;;2.35;0.70;;;4.80;99.90;;;;;;5012285;28;20045;-67
2023/02/19 05:21:36;;;;;;;4.30;1.08;;;4.80;99.90;;;;;;5015468;28;20049;-71
2023/02/19 05:24:02;;;;;;;12.50;1.20;;;4.90;99.90;;;;;;5013834;28;20054;-65
2023/02/19 05:26:29;;;;;;;3.95;1.40;;;4.90;99.90;;;;;;5006492;28;20095;-77
2023/02/19 05:28:55;;;;;;;6.07;1.30;;;4.90;99.90;;;;;;5007583;28;20095;-68
2023/02/19 05:31:21;;;;;;;5.32;1.30;;;4.90;99.90;;;;;;5006902;28;20424;-68
2023/02/19 05:33:49;;;;;;;10.65;1.30;;;4.80;99.90;;;;;;5004141;28;20053;-65
2023/02/19 05:36:17;;;;;;;5.00;1.10;;;4.70;99.90;;;;;;5007353;28;20076;-65
2023/02/19 05:38:42;;;;;;;2.83;1.10;;;4.80;99.90;;;;;;5005508;28;20056;-65
2023/02/19 05:41:14;;;;;;;4.20;1.20;;;4.80;99.90;;;;;;5005683;28;20050;-80
2023/02/19 05:43:41;;;;;;;5.95;1.23;;;4.80;99.90;;;;;;5012145;28;20056;-77
2023/02/19 05:46:08;;;;;;;4.20;1.00;;;4.80;99.90;;;;;;5013413;28;20045;-65
2023/02/19 05:48:35;;;;;;;12.20;1.98;;;4.70;99.90;;;;;;5007995;28;20046;-65
2023/02/19 05:51:06;;;;;;;9.13;1.10;;;4.70;99.90;;;;;;5004770;28;20062;-66
2023/02/19 05:53:32;;;;;;;5.22;1.38;;;4.70;99.90;;;;;;5007948;28;20049;-65
2023/02/19 05:55:58;;;;;;;5.45;1.35;;;4.70;99.90;;;;;;5014928;28;20053;-65
2023/02/19 05:58:24;;;;;;;5.45;1.65;;;4.70;99.90;;;;;;5011699;28;20120;-65
2023/02/19 06:00:50;;;;;;;11.52;1.85;;;4.70;99.90;;;;;;5006356;28;20084;-65
2023/02/19 06:03:16;;;;;;;8.13;1.63;;;4.70;99.90;;;;;;5013615;28;20547;-65
2023/02/19 06:05:41;;;;;;;12.73;2.00;;;4.70;99.90;;;;;;5010875;28;20049;-64
2023/02/19 06:08:08;;;;;;;6.13;1.02;;;4.70;99.90;;;;;;5005712;28;20088;-72
2023/02/19 06:10:36;;;;;;;6.50;1.45;;;4.70;99.90;;;;;;5007456;28;20048;-65
2023/02/19 06:13:01;;;;;;;5.45;1.40;;;4.70;99.90;;;;;;5005796;28;20049;-65
2023/02/19 06:15:27;;;;;;;8.40;1.52;;;4.80;99.90;;;;;;5017093;28;20042;-65
2023/02/19 06:17:53;;;;;;;8.25;1.63;;;4.80;99.90;;;;;;5018642;28;20050;-66
2023/02/19 06:20:18;;;;;;;3.13;1.05;;;4.70;99.90;;;;;;5015006;28;20103;-65
2023/02/19 06:22:44;;;;;;;5.85;1.15;;;4.70;99.90;;;;;;5013756;28;20050;-64
2023/02/19 06:25:11;;;;;;;4.47;1.30;;;4.70;99.90;;;;;;5008589;28;20133;-65
2023/02/19 06:27:38;;;;;;;3.05;1.13;;;4.70;99.90;;;;;;5006696;28;20403;-66
2023/02/19 06:30:04;;;;;;;8.13;1.05;;;4.70;99.90;;;;;;5004431;28;20085;-65
2023/02/19 06:32:30;;;;;;;6.85;0.80;;;4.70;99.90;;;;;;5008141;28;20034;-65
2023/02/19 06:34:56;;;;;;;5.85;0.60;;;4.70;99.90;;;;;;5015941;28;20100;-65
2023/02/19 06:37:21;;;;;;;5.15;0.80;;;4.70;99.90;;;;;;5010275;28;20068;-65
2023/02/19 06:39:47;;;;;;;5.90;0.70;;;4.70;99.90;;;;;;5007661;28;20508;-65
2023/02/19 06:42:13;;;;;;;2.58;0.60;;;4.70;99.90;;;;;;5006940;28;20049;-65
2023/02/19 06:44:38;;;;;;;6.13;0.65;;;4.60;99.90;;;;;;5006715;28;20131;-65
2023/02/19 06:47:04;;;;;;;7.38;0.98;;;4.60;99.90;;;;;;5005678;28;20050;-65
2023/02/19 06:49:30;;;;;;;3.80;0.77;;;4.60;99.90;;;;;;5016582;28;20049;-65
2023/02/19 06:51:55;;;;;;;5.72;0.77;;;4.60;99.90;;;;;;5009494;28;20404;-65
2023/02/19 06:54:21;;;;;;;7.15;1.00;;;4.60;99.90;;;;;;5010360;28;20050;-65
2023/02/19 06:56:47;;;;;;;8.82;0.70;;;4.50;99.90;;;;;;5021789;28;20061;-66
2023/02/19 06:59:17;;;;;;;3.40;0.63;;;4.60;99.90;;;;;;5014510;28;20096;-71
2023/02/19 07:01:44;;;;;;;9.45;0.85;;;4.50;99.90;;;;;;5015856;28;20045;-65
2023/02/19 07:04:10;;;;;;;12.75;1.35;;;4.60;99.90;;;;;;5009821;28;20129;-66
2023/02/19 07:06:37;;;;;;;4.65;0.80;;;4.50;99.90;;;;;;5009622;28;20104;-65
2023/02/19 07:09:05;;;;;;;5.95;0.75;;;4.60;99.90;;;;;;5011446;28;20057;-65
2023/02/19 07:11:33;;;;;;;5.82;0.82;;;4.60;99.90;;;;;;5010396;28;20045;-65
2023/02/19 07:14:01;;;;;;;10.82;1.00;;;4.60;99.90;;;;;;5009011;28;20065;-69
2023/02/19 07:16:28;;;;;;;10.40;0.80;;;4.70;99.90;;;;;;5010268;28;20544;-65
2023/02/19 07:18:56;;;;;;;4.15;0.80;;;4.70;99.90;;;;;;5017217;28;20050;-65
2023/02/19 07:21:22;;;;;;;10.10;1.00;;;4.70;99.90;;;;;;5008933;28;20502;-65
2023/02/19 07:23:48;;;;;;;5.43;0.70;;;4.80;99.90;;;;;;5010366;28;20239;-65
2023/02/19 07:26:16;;;;;;;4.93;0.40;;;4.80;99.90;;;;;;5008101;28;20056;-65
2023/02/19 07:28:46;;;;;;;8.57;0.90;;;4.80;99.90;;;;;;5010167;28;20417;-64
2023/02/19 07:31:12;;;;;;;;;;;4.80;99.90;;;;;;5009634;28;20049;-65
2023/02/19 07:33:38;;;;;;;8.68;0.95;;;4.80;99.90;;;;;;5010402;28;19921;-72
2023/02/19 07:36:06;;;;;;;10.15;0.80;;;4.90;99.90;;;;;;5008396;28;20061;-65
2023/02/19 07:38:32;;;;;;;5.20;1.30;;;4.80;99.90;;;;;;5009370;28;20045;-66
2023/02/19 07:41:00;;;;;;;5.60;0.52;;;4.90;99.90;;;;;;5020009;28;20065;-65
2023/02/19 07:43:30;;;;;;;8.35;0.85;;;4.90;99.90;;;;;;5007161;28;20088;-65
2023/02/19 07:45:56;;;;;;;4.50;0.68;;;4.90;99.90;;;;;;5008243;28;20053;-65
2023/02/19 07:48:22;;;;;;;7.82;1.00;;;5.00;99.90;;;;;;5026620;28;20089;-65
2023/02/19 07:50:55;;;;;;;3.85;0.98;;;5.00;99.90;;;;;;5019783;28;20078;-65
2023/02/19 07:53:22;;;;;;;8.75;0.98;;;5.00;99.90;;;;;;5008089;28;20647;-65
2023/02/19 07:55:47;;;;;;;6.20;0.82;;;5.10;99.90;;;;;;5007803;28;20050;-65
2023/02/19 07:58:13;;;;;;;9.95;0.88;;;5.10;99.90;;;;;;5010986;28;20466;-66
2023/02/19 08:00:39;;;;;;;4.82;0.65;;;5.20;99.90;;;;;;5012620;28;20037;-65
2023/02/19 08:03:05;;;;;;;6.68;0.95;;;5.20;99.90;;;;;;5013090;28;20496;-65
2023/02/19 08:05:35;;;;;;;5.95;0.95;;;5.20;99.90;;;;;;5012717;28;20479;-65
2023/02/19 08:08:04;;;;;;;6.20;0.80;;;5.20;99.90;;;;;;5020526;28;20042;-65
2023/02/19 08:13:18;;;;;;;8.88;0.85;;;5.30;99.90;;;;;;5024403;28;20466;-66
2023/02/19 08:16:00;;;;;;;7.68;1.05;;;5.30;99.90;;;;;;5020202;28;20080;-65
2023/02/19 08:18:27;;;;;;;8.88;0.75;;;5.30;99.90;;;;;;5022550;28;20042;-65
2023/02/19 08:20:54;;;;;;;5.68;1.00;;;5.30;99.90;;;;;;5013645;28;20448;-65
2023/02/19 08:23:21;;;;;;;7.82;1.38;;;5.40;99.90;;;;;;5022288;28;20125;-65
2023/02/19 08:25:48;;;;;;;5.93;0.60;;;5.40;99.90;;;;;;5016840;28;20046;-65
2023/02/19 08:28:14;;;;;;;12.65;1.27;;;5.50;99.90;;;;;;5013004;28;20045;-65
2023/02/19 08:30:43;;;;;;;7.95;1.00;;;5.50;99.90;;;;;;5011725;28;20070;-65
2023/02/19 08:33:10;;;;;;;9.95;1.00;;;5.50;99.90;;;;;;5011293;28;20057;-65
2023/02/19 08:35:36;;;;;;;7.38;0.80;;;5.50;99.90;;;;;;5007946;28;20045;-65
2023/02/19 08:38:04;;;;;;;5.72;0.90;;;5.60;99.90;;;;;;5008869;28;20100;-66
2023/02/19 08:40:30;;;;;;;5.45;1.00;;;5.70;99.90;;;;;;5007852;28;20048;-64
2023/02/19 08:43:08;;;;;;;11.07;0.85;;;5.80;99.90;;;;;;5017267;28;20046;-64
2023/02/19 08:45:36;;;;;;;13.73;1.23;;;5.80;99.90;;;;;;5010334;28;20488;-64
2023/02/19 08:48:03;;;;;;;3.22;0.60;;;5.90;99.90;;;;;;5007542;28;20034;-65
2023/02/19 08:50:28;;;;;;;7.35;1.10;;;6.00;99.90;;;;;;5021399;28;20089;-65
2023/02/19 08:52:54;;;;;;;8.30;1.10;;;6.00;99.90;;;;;;5015234;28;21533;-66
2023/02/19 08:55:20;;;;;;;6.75;0.95;;;6.10;99.90;;;;;;5018558;28;20038;-65
2023/02/19 08:57:46;;;;;;;5.72;0.75;;;6.20;99.90;;;;;;5010056;28;20038;-64
2023/02/19 09:00:12;;;;;;;3.67;0.77;;;6.20;99.90;;;;;;5010314;28;20103;-65
2023/02/19 09:02:38;;;;;;;8.05;0.75;;;6.20;99.90;;;;;;5008164;28;20042;-68
2023/02/19 09:05:04;;;;;;;9.95;0.90;;;6.20;99.90;;;;;;5007483;28;20539;-71
2023/02/19 09:07:30;;;;;;;7.47;1.15;;;6.30;99.90;;;;;;5013203;28;20522;-65
2023/02/19 09:09:57;;;;;;;8.55;1.02;;;6.20;99.90;;;;;;5017535;28;20045;-64
2023/02/19 09:12:23;;;;;;;11.10;1.08;;;6.30;99.90;;;;;;5022091;28;20238;-64
2023/02/19 09:14:49;;;;;;;11.95;1.42;;;6.30;99.90;;;;;;5008605;28;20391;-69
2023/02/19 09:17:15;;;;;;;10.52;1.80;;;6.30;99.90;;;;;;5004619;28;20083;-68
2023/02/19 09:19:41;;;;;;;8.80;1.02;;;6.40;99.90;;;;;;5009266;28;20049;-64
2023/02/19 09:22:06;;;;;;;4.72;1.35;;;6.40;99.90;;;;;;5015085;28;20511;-64
2023/02/19 09:24:32;;;;;;;7.53;1.48;;;6.50;99.90;;;;;;5005793;28;20041;-66
2023/02/19 09:26:58;;;;;;;7.15;0.80;;;6.50;99.90;;;;;;5009893;28;20042;-74
2023/02/19 09:29:26;;;;;;;4.93;0.98;;;6.60;99.90;;;;;;5009857;28;20058;-71
2023/02/19 09:31:59;;;;;;;9.55;1.20;;;6.60;99.90;;;;;;5014383;28;20057;-64
2023/02/19 09:34:26;;;;;;;8.27;1.05;;;6.60;99.90;;;;;;5015416;28;20048;-69
2023/02/19 09:36:53;;;;;;;7.07;0.93;;;6.50;99.90;;;;;;5010058;28;20037;-64
2023/02/19 09:39:19;;;;;;;9.07;0.85;;;6.40;99.90;;;;;;5011429;28;20415;-72
2023/02/19 09:42:16;;;;;;;6.22;1.20;;;6.40;99.90;;;;;;5019634;28;20046;-65
2023/02/19 09:44:47;;;;;;;5.25;1.15;;;6.50;99.90;;;;;;5011060;28;20049;-65
2023/02/19 09:47:20;;;;;;;;;;;6.50;99.90;;;;;;5005979;28;20512;-64
2023/02/19 09:49:51;;;;;;;6.88;1.35;;;6.50;99.90;;;;;;5011510;28;20025;-66
2023/02/19 09:52:39;;;;;;;7.43;0.90;;;6.50;99.90;;;;;;5007641;28;20157;-71
2023/02/19 09:55:20;;;;;;;8.68;1.17;;;6.50;99.90;;;;;;5021755;28;20045;-73
2023/02/19 09:57:47;;;;;;;4.43;0.80;;;6.60;99.90;;;;;;5015395;28;20049;-72
2023/02/19 10:00:13;;;;;;;11.52;1.42;;;6.70;99.90;;;;;;5012901;28;20120;-65
2023/02/19 10:02:39;;;;;;;3.10;0.68;;;6.70;99.90;;;;;;5007545;28;20076;-73
2023/02/19 10:05:15;;;;;;;6.82;1.45;;;6.80;99.90;;;;;;5020733;28;20053;-72
2023/02/19 10:07:45;;;;;;;3.67;0.88;;;6.70;99.90;;;;;;5007675;28;20084;-64
2023/02/19 10:10:13;;;;;;;2.67;1.05;;;6.80;99.90;;;;;;5011515;28;20496;-64
2023/02/19 10:12:51;;;;;;;8.50;1.02;;;6.80;99.90;;;;;;5005872;28;20527;-64
2023/02/19 10:15:24;;;;;;;12.80;1.10;;;6.90;99.90;;;;;;5005672;28;20129;-64
2023/02/19 10:17:50;;;;;;;4.63;0.77;;;7.00;99.90;;;;;;5020106;28;20036;-64
2023/02/19 10:20:23;;;;;;;6.88;0.90;;;7.10;99.90;;;;;;5012509;28;20049;-64
2023/02/19 10:23:01;;;;;;;9.02;1.40;;;7.20;99.90;;;;;;5006341;28;20129;-64
2023/02/19 10:25:28;;;;;;;7.25;1.10;;;7.20;99.90;;;;;;5017539;28;20054;-64
2023/02/19 10:27:56;;;;;;;4.38;0.70;;;7.30;99.90;;;;;;5018809;28;20046;-64
2023/02/19 10:30:26;;;;;;;3.10;0.60;;;7.40;99.90;;;;;;5021676;28;20048;-70
2023/02/19 10:33:00;;;;;;;;;;;7.40;99.90;;;;;;5021597;28;20107;-64
2023/02/19 10:35:26;;;;;;;6.18;0.75;;;7.40;99.90;;;;;;5019149;28;19976;-65
2023/02/19 10:37:52;;;;;;;7.55;0.88;;;7.50;99.90;;;;;;5015404;28;20042;-64
2023/02/19 10:40:24;;;;;;;5.78;0.98;;;7.50;99.90;;;;;;5017830;28;20053;-64
2023/02/19 10:42:54;;;;;;;5.18;1.02;;;7.60;99.90;;;;;;5027891;28;20510;-64
2023/02/19 10:45:32;;;;;;;4.05;0.70;;;7.50;99.90;;;;;;5009817;28;20418;-74
2023/02/19 10:47:59;;;;;;;8.73;1.35;;;7.50;99.90;;;;;;5012077;28;20049;-86
2023/02/19 10:50:31;;;;;;;4.43;0.82;;;7.60;99.90;;;;;;5010783;28;20081;-92
2023/02/19 10:52:59;;;;;;;4.43;1.00;;;7.60;99.90;;;;;;5027346;28;20053;-78
2023/02/19 10:55:34;;;;;;;10.65;1.92;;;7.60;99.90;;;;;;5016919;28;20099;-64
2023/02/19 10:58:27;;;;;;;6.63;0.98;;;7.60;99.90;;;;;;5011088;28;20050;-64
2023/02/19 11:01:29;;;;;;;9.77;1.52;;;7.60;99.90;;;;;;5011821;28;20038;-64
2023/02/19 11:04:15;;;;;;;5.60;0.73;;;7.60;99.90;;;;;;4954478;28;20133;-73
2023/02/19 11:06:40;;;;;;;13.20;2.00;;;7.60;99.90;;;;;;5008367;28;20057;-68
2023/02/19 11:09:26;;;;;;;7.57;0.90;;;7.60;99.90;;;;;;5013479;28;20049;-64
2023/02/19 11:11:53;;;;;;;7.65;1.42;;;7.70;99.90;;;;;;5009901;28;20072;-64
2023/02/19 11:14:22;;;;;;;6.32;0.85;;;7.70;99.90;;;;;;5009727;28;20049;-79
2023/02/19 11:16:57;;;;;;;7.30;1.73;;;7.70;99.90;;;;;;5013707;28;20050;-83
2023/02/19 11:19:35;;;;;;;8.00;1.20;;;7.70;99.90;;;;;;5011436;28;20085;-64
2023/02/19 11:22:02;;;;;;;8.07;1.17;;;7.70;99.90;;;;;;5011504;28;20088;-64
2023/02/19 11:24:35;;;;;;;11.80;1.40;;;7.80;99.90;;;;;;5016580;28;20140;-64
2023/02/19 11:27:05;;;;;;;6.07;1.25;;;7.80;99.90;;;;;;5017917;28;20049;-64
2023/02/19 11:29:35;;;;;;;6.38;1.20;;;7.90;99.90;;;;;;5022875;28;20073;-73
2023/02/19 11:32:30;;;;;;;8.07;1.40;;;8.00;99.90;;;;;;5014401;28;20050;-64
2023/02/19 11:35:18;;;;;;;4.93;1.60;;;8.00;99.90;;;;;;5002776;28;20049;-66
2023/02/19 11:38:00;;;;;;;8.95;1.10;;;8.10;99.90;;;;;;5017467;28;20050;-85
2023/02/19 11:40:40;;;;;;;5.68;0.85;;;8.00;99.90;;;;;;5014400;28;20542;-75
2023/02/19 11:43:48;;;;;;;6.43;1.15;;;7.80;99.90;;;;;;5015630;28;20041;-67
2023/02/19 11:46:33;;;;;;;11.70;1.30;;;7.70;99.90;;;;;;5013161;28;20038;-64
2023/02/19 11:49:36;;;;;;;7.03;0.88;;;7.50;99.90;;;;;;5011186;28;20124;-75
2023/02/19 11:52:02;;;;;;;4.32;1.02;;;7.30;99.90;;;;;;5014336;28;20102;-64
2023/02/19 11:54:39;;;;;;;8.23;0.90;;;7.10;99.90;;;;;;5019217;28;20430;-64
2023/02/19 11:57:38;;;;;;;10.45;1.50;;;7.10;99.90;;;;;;5018682;28;20045;-88
2023/02/19 12:00:33;;;;;;;5.30;1.10;;;7.30;99.90;;;;;;5018977;28;20132;-64
2023/02/19 12:03:33;;;;;;;6.18;1.10;;;7.50;99.90;;;;;;5022839;28;20058;-77
2023/02/19 12:06:23;;;;;;;11.57;1.13;;;7.60;99.90;;;;;;5011033;28;20052;-85
2023/02/19 12:09:07;;;;;;;8.20;1.10;;;7.50;99.90;;;;;;5013666;28;20053;-64
2023/02/19 12:11:54;;;;;;;6.28;1.20;;;7.50;99.90;;;;;;5010012;28;20046;-71
2023/02/19 12:15:04;;;;;;;6.05;1.13;;;7.50;99.90;;;;;;5012239;28;20590;-84
2023/02/19 12:17:40;;;;;;;7.47;1.27;;;7.60;99.90;;;;;;4980787;28;20176;-68
2023/02/19 12:20:15;;;;;;;8.82;1.05;;;7.70;99.90;;;;;;5023255;28;20473;-64
2023/02/19 12:22:54;;;;;;;7.78;1.30;;;7.60;99.90;;;;;;5011347;28;20496;-65
2023/02/19 12:25:55;;;;;;;9.73;1.35;;;7.60;99.90;;;;;;5018292;28;20072;-68
2023/02/19 12:28:49;;;;;;;4.78;0.98;;;7.60;99.90;;;;;;5005463;28;20045;-64
2023/02/19 12:31:27;;;;;;;9.60;1.30;;;7.70;99.90;;;;;;5019982;28;20523;-69
2023/02/19 12:34:20;;;;;;;16.55;2.13;;;7.80;99.90;;;;;;5013722;28;20045;-64
2023/02/19 12:37:18;;;;;;;7.30;0.82;;;7.90;99.90;;;;;;5006931;28;20116;-70
2023/02/19 12:39:55;;;;;;;7.75;0.95;;;8.10;99.90;;;;;;5002711;28;20049;-65
2023/02/19 12:42:42;;;;;;;6.47;1.27;;;8.30;99.90;;;;;;5016307;28;20455;-69
2023/02/19 12:45:17;;;;;;;9.05;1.25;;;8.30;99.90;;;;;;5008452;28;20072;-69
2023/02/19 12:47:50;;;;;;;4.28;1.02;;;8.30;99.90;;;;;;5008386;28;20060;-64
2023/02/19 12:50:24;;;;;;;9.10;1.25;;;8.30;99.90;;;;;;5007304;28;20625;-64
2023/02/19 12:52:54;;;;;;;10.55;1.25;;;8.20;99.90;;;;;;5015140;28;20157;-68
2023/02/19 12:55:21;;;;;;;;;;;8.10;99.90;;;;;;5013224;28;20424;-63
2023/02/19 12:57:49;;;;;;;4.93;0.80;;;8.00;99.90;;;;;;5017858;28;19947;-63
2023/02/19 13:00:50;;;;;;;4.32;1.00;;;8.00;99.90;;;;;;5009696;28;20128;-64
2023/02/19 13:03:19;;;;;;;7.13;1.02;;;7.90;99.90;;;;;;5004873;28;20409;-63
2023/02/19 13:06:15;;;;;;;9.90;1.20;;;8.00;99.90;;;;;;5012362;28;20077;-64
2023/02/19 13:08:44;;;;;;;6.65;1.13;;;8.00;99.90;;;;;;5010131;28;20045;-63
2023/02/19 13:11:17;;;;;;;7.63;1.35;;;8.10;99.90;;;;;;5007624;28;20124;-64
2023/02/19 13:13:55;;;;;;;5.43;1.05;;;8.20;99.90;;;;;;5009894;28;20210;-67
2023/02/19 13:16:23;;;;;;;6.32;1.35;;;8.30;99.90;;;;;;5005810;28;20038;-63
2023/02/19 13:18:59;;;;;;;8.02;1.15;;;8.30;99.90;;;;;;5022373;28;20054;-63
2023/02/19 13:24:28;;;;;;;10.70;1.10;;;8.30;99.90;;;;;;5004920;28;20088;-64
2023/02/19 13:27:03;;;;;;;8.93;1.00;;;8.20;99.90;;;;;;5022830;28;20121;-67
2023/02/19 13:29:54;;;;;;;3.88;1.00;;;8.20;99.90;;;;;;5024469;28;20054;-64
2023/02/19 13:32:48;;;;;;;9.25;0.80;;;8.10;99.90;;;;;;5008991;28;20404;-64
2023/02/19 13:35:13;;;;;;;5.80;1.60;;;8.10;99.90;;;;;;5011726;28;20041;-63
2023/02/19 13:37:40;;;;;;;6.43;1.00;;;8.00;99.90;;;;;;5006164;28;20045;-77
2023/02/19 13:40:17;;;;;;;5.70;1.20;;;8.00;99.90;;;;;;5011597;28;20057;-64
2023/02/19 13:42:55;;;;;;;6.05;0.98;;;8.10;99.90;;;;;;5009622;28;20042;-64